Christchurch, New Zealand

2:15 PM NZDT on March 24, 2017 (GMT +1300)
Canterbury | | Change Station

Elev 36 ft 43.53 °S, 172.63 °E | Updated 18 seconds ago

Clear
Clear
75.7 °F
Feels Like 78 °F
N
0.0
Wind Variable Wind from North
Gusts 4.7 mph

Today
High -- | Low -- °F
--% Chance of Precip.
Yesterday
High -- | Low -- °F
Precip. -- in
Pressure 29.80 in
Visibility 6.2 miles
Clouds
Heat Index 78 °F
Dew Point 63 °F
Humidity 65%
Rainfall 0.00 in
Snow Depth Not available.
7:36 AM 7:34 PM
Waning Crescent, 19% visible
METAR NZCH 240100Z AUTO 12003KT 9999 NCD 20/12 Q1009 NOSIG
Pressure 29.80 in
Visibility 6.2 miles
Clouds
Heat Index 78 °F
Dew Point 63 °F
Humidity 65%
Rainfall 0.00 in
Snow Depth Not available.
7:36 AM 7:34 PM
Waning Crescent, 19% visible
METAR NZCH 240100Z AUTO 12003KT 9999 NCD 20/12 Q1009 NOSIG

Get Severe Weather Alerts

Thanks for signing up!

Be on the lookout for a verification email in your inbox.

You'll start receiving the daily forecast at 8 AM.

×

10-Day Weather Forecast

×

Almanac

Astronomy

Mar. 24, 2017 Rise Set
Actual Time
Civil Twilight
Nautical Twilight
Astronomical Twilight
Moon
Length of Visible Light
Length of Day
Tomorrow will be .
, % of the Moon is Illuminated

Today's Extremes

Country Highs Country Lows

Community

WunderPhotos

Upload Photos

1,962,540 photos uploaded!

WunderBlog® & News

Nearby

Air Quality

  Air Quality AQ Index Pollutant
Not available.

Snow Depth

Station Depth Elevation

Earthquake Activity

City Distance Mag. Time & Date
Minimum magnitude displayed is 2.5.

Earthquake Activity

City Distance Mag. Time & Date
Minimum magnitude displayed is 2.5.

Coastal Water Temperatures

Place Temperature

Stations

Nearby Weather Stations

Station Location Temp. Windchill Dew Point Humidity Wind Precip. Elev Updated Type